createdAt,value
2023-03-26T00:01:08.290Z,7.44
2023-03-26T00:03:35.913Z,7.44
2023-03-26T00:06:07.683Z,7.44
2023-03-26T00:08:35.464Z,7.44
2023-03-26T00:11:03.122Z,7.44
2023-03-26T00:13:30.563Z,7.43
2023-03-26T00:15:57.075Z,7.45
2023-03-26T00:18:30.772Z,7.41
2023-03-26T00:21:03.463Z,7.42
2023-03-26T00:23:31.990Z,7.40
2023-03-26T00:25:58.739Z,7.40
2023-03-26T00:28:26.334Z,7.36
2023-03-26T00:31:04.398Z,7.35
2023-03-26T00:33:38.567Z,7.36
2023-03-26T00:36:16.691Z,7.35
2023-03-26T00:38:44.869Z,7.32
2023-03-26T00:41:26.943Z,7.32
2023-03-26T00:43:56.832Z,7.29
2023-03-26T00:46:25.557Z,7.28
2023-03-26T00:48:52.159Z,7.27
2023-03-26T00:51:20.661Z,7.26
2023-03-26T00:53:48.885Z,7.25
2023-03-26T00:56:16.221Z,7.29
2023-03-26T00:58:43.178Z,7.29
2023-03-26T01:01:13.912Z,7.32
2023-03-26T01:03:50.105Z,7.33
2023-03-26T01:06:27.895Z,7.30
2023-03-26T01:09:00.079Z,7.26
2023-03-26T01:11:29.676Z,7.29
2023-03-26T01:13:59.670Z,7.25
2023-03-26T01:16:37.336Z,7.26
2023-03-26T01:19:16.470Z,7.19
2023-03-26T01:21:43.031Z,7.20
2023-03-26T01:24:10.480Z,7.21
2023-03-26T01:27:11.752Z,7.27
2023-03-26T01:29:46.912Z,7.30
2023-03-26T01:32:48.608Z,7.30
2023-03-26T01:35:19.138Z,7.26
2023-03-26T01:38:11.253Z,7.21
2023-03-26T01:40:56.553Z,7.21
2023-03-26T01:43:43.590Z,7.20
2023-03-26T01:46:11.540Z,7.14
2023-03-26T01:48:41.319Z,7.10
2023-03-26T01:51:09.253Z,7.12
2023-03-26T01:53:42.439Z,7.12
2023-03-26T01:56:30.790Z,7.15
2023-03-26T01:59:07.357Z,7.04
2023-03-26T02:01:46.806Z,7.03
2023-03-26T02:04:19.437Z,7.02
2023-03-26T02:06:51.687Z,6.95
2023-03-26T02:09:24.780Z,6.94
2023-03-26T02:11:51.660Z,6.95
2023-03-26T02:14:18.153Z,6.96
2023-03-26T02:16:46.884Z,6.95
2023-03-26T02:19:21.929Z,6.94
2023-03-26T02:21:51.657Z,6.93
2023-03-26T02:24:19.945Z,6.92
2023-03-26T02:26:46.573Z,6.80
2023-03-26T02:29:14.445Z,6.78
2023-03-26T02:31:41.055Z,6.76
2023-03-26T02:34:07.705Z,6.77
2023-03-26T02:36:35.915Z,6.75
2023-03-26T02:39:02.814Z,6.70
2023-03-26T02:41:29.299Z,6.74
2023-03-26T02:43:55.768Z,6.80
2023-03-26T02:46:22.297Z,6.82
2023-03-26T02:48:49.885Z,6.85
2023-03-26T02:51:18.212Z,6.85
2023-03-26T02:53:44.770Z,6.92
2023-03-26T02:56:12.593Z,6.97
2023-03-26T02:58:39.166Z,6.99
2023-03-26T03:01:05.784Z,7.00
2023-03-26T03:03:32.323Z,7.06
2023-03-26T03:05:58.898Z,7.08
2023-03-26T03:08:28.178Z,7.13
2023-03-26T03:10:57.804Z,7.19
2023-03-26T03:13:24.318Z,7.24
2023-03-26T03:15:51.185Z,7.29
2023-03-26T03:18:17.640Z,7.38
2023-03-26T03:20:44.825Z,7.41
2023-03-26T03:23:11.526Z,7.49
2023-03-26T03:25:41.330Z,7.52
2023-03-26T03:28:08.647Z,7.59
2023-03-26T03:30:35.861Z,7.62
2023-03-26T03:33:03.246Z,7.66
2023-03-26T03:35:30.400Z,7.68
2023-03-26T03:37:57.649Z,7.68
2023-03-26T03:40:24.104Z,7.72
2023-03-26T03:42:51.440Z,7.71
2023-03-26T03:45:18.736Z,7.71
2023-03-26T03:47:45.482Z,7.72
2023-03-26T03:50:12.069Z,7.79
2023-03-26T03:52:38.579Z,7.82
2023-03-26T03:55:05.471Z,7.84
2023-03-26T03:57:33.494Z,7.85
2023-03-26T04:00:00.227Z,7.84
2023-03-26T04:02:30.500Z,7.88
2023-03-26T04:05:00.501Z,7.92
2023-03-26T04:07:31.164Z,7.89
2023-03-26T04:10:02.482Z,7.91
2023-03-26T04:12:29.874Z,7.94
2023-03-26T04:14:57.289Z,7.92
2023-03-26T04:17:24.355Z,7.96
2023-03-26T04:19:52.895Z,7.96
2023-03-26T04:22:19.744Z,7.97
2023-03-26T04:24:46.258Z,7.97
2023-03-26T04:27:16.782Z,7.98
2023-03-26T04:29:47.859Z,7.95
2023-03-26T04:32:38.152Z,7.95
2023-03-26T04:35:05.287Z,7.97
2023-03-26T04:37:40.953Z,7.98
2023-03-26T04:40:12.020Z,7.98
2023-03-26T04:42:41.712Z,8.00
2023-03-26T04:45:09.174Z,8.03
2023-03-26T04:47:37.049Z,8.03
2023-03-26T04:50:05.484Z,7.99
2023-03-26T04:52:32.523Z,8.05
2023-03-26T04:54:59.883Z,8.02
2023-03-26T04:57:37.458Z,8.02
2023-03-26T05:00:16.012Z,8.05
2023-03-26T05:02:43.428Z,8.05
2023-03-26T05:05:10.487Z,8.06
2023-03-26T05:07:37.478Z,8.08
2023-03-26T05:10:05.596Z,8.03
2023-03-26T05:12:32.052Z,8.07
2023-03-26T05:14:58.601Z,8.04
2023-03-26T05:17:25.868Z,8.03
2023-03-26T05:19:52.561Z,8.03
2023-03-26T05:22:19.307Z,8.06
2023-03-26T05:24:45.873Z,8.05
2023-03-26T05:27:16.984Z,8.02
2023-03-26T05:29:43.882Z,8.08
2023-03-26T05:32:10.927Z,8.08
2023-03-26T05:34:39.877Z,8.06
2023-03-26T05:37:06.956Z,8.07
2023-03-26T05:39:33.804Z,8.06
2023-03-26T05:42:00.311Z,8.11
2023-03-26T05:44:26.980Z,8.13
2023-03-26T05:46:53.521Z,8.17
2023-03-26T05:49:20.223Z,8.14
2023-03-26T05:51:46.686Z,8.18
2023-03-26T05:54:13.148Z,8.18
2023-03-26T05:56:39.728Z,8.14
2023-03-26T05:59:06.847Z,8.12
2023-03-26T06:01:33.396Z,8.12
2023-03-26T06:03:59.999Z,8.11
2023-03-26T06:06:26.734Z,8.10
2023-03-26T06:09:01.956Z,8.08
2023-03-26T06:11:31.428Z,8.06
2023-03-26T06:13:58.512Z,8.12
2023-03-26T06:16:27.034Z,8.11
2023-03-26T06:18:56.635Z,8.15
2023-03-26T06:21:25.166Z,8.16
2023-03-26T06:23:51.798Z,8.22
2023-03-26T06:26:18.516Z,8.25
2023-03-26T06:28:45.002Z,8.25
2023-03-26T06:31:12.025Z,8.31
2023-03-26T06:33:38.649Z,8.28
2023-03-26T06:36:05.940Z,8.29
2023-03-26T06:38:32.499Z,8.29
2023-03-26T06:41:06.220Z,8.30
2023-03-26T06:43:33.821Z,8.29
2023-03-26T06:46:04.367Z,8.28
2023-03-26T06:48:31.296Z,8.36
2023-03-26T06:50:58.127Z,8.30
2023-03-26T06:53:24.781Z,8.32
2023-03-26T06:55:52.907Z,8.39
2023-03-26T06:58:19.960Z,8.38
2023-03-26T07:00:46.826Z,8.44
2023-03-26T07:03:13.393Z,8.46
2023-03-26T07:05:43.129Z,8.45
2023-03-26T07:08:09.591Z,8.43
2023-03-26T07:10:36.179Z,8.43
2023-03-26T07:13:02.794Z,8.45
2023-03-26T07:15:29.394Z,8.44
2023-03-26T07:17:56.410Z,8.46
2023-03-26T07:20:24.065Z,8.41
2023-03-26T07:22:51.749Z,8.38
2023-03-26T07:25:19.066Z,8.41
2023-03-26T07:28:13.197Z,8.45
2023-03-26T07:30:49.050Z,8.50
2023-03-26T07:33:24.356Z,8.54
2023-03-26T07:36:02.799Z,8.56
2023-03-26T07:38:45.240Z,8.60
2023-03-26T07:41:38.056Z,8.58
2023-03-26T07:44:35.936Z,8.61
2023-03-26T07:47:11.182Z,8.53
2023-03-26T07:49:38.253Z,8.50
2023-03-26T07:52:05.256Z,8.51
2023-03-26T07:54:32.016Z,8.57
2023-03-26T07:57:05.533Z,8.57
2023-03-26T07:59:52.431Z,8.59
2023-03-26T08:02:37.895Z,8.61
2023-03-26T08:05:10.440Z,8.65
2023-03-26T08:08:32.559Z,8.66
2023-03-26T08:11:14.299Z,8.65
2023-03-26T08:13:57.081Z,8.67
2023-03-26T08:16:31.932Z,8.66
2023-03-26T08:19:28.639Z,8.74
2023-03-26T08:22:20.853Z,8.79
2023-03-26T08:25:20.445Z,8.80
2023-03-26T08:27:58.101Z,8.79
2023-03-26T08:30:27.297Z,8.72
2023-03-26T08:32:58.291Z,8.67
2023-03-26T08:35:26.820Z,8.63
2023-03-26T08:37:53.744Z,8.62
2023-03-26T08:40:56.915Z,8.65
2023-03-26T08:43:39.198Z,8.67
2023-03-26T08:46:15.722Z,8.66
2023-03-26T08:49:09.809Z,8.66
2023-03-26T08:51:42.323Z,8.65
2023-03-26T08:54:08.781Z,8.57
2023-03-26T08:57:01.594Z,8.54
2023-03-26T08:59:37.244Z,8.48
2023-03-26T09:02:21.802Z,8.45
2023-03-26T09:05:25.481Z,8.44
2023-03-26T09:08:04.116Z,8.41
2023-03-26T09:11:17.481Z,8.38
2023-03-26T09:13:55.184Z,8.35
2023-03-26T09:17:13.448Z,8.27
2023-03-26T09:20:17.687Z,8.12
2023-03-26T09:23:21.217Z,8.09
2023-03-26T09:26:03.502Z,8.07
2023-03-26T09:29:03.618Z,8.02
2023-03-26T09:31:38.334Z,8.04
2023-03-26T09:34:25.407Z,8.06
2023-03-26T09:36:57.251Z,8.06
2023-03-26T09:39:53.057Z,8.10
2023-03-26T09:42:34.585Z,8.19
2023-03-26T09:45:25.602Z,8.20
2023-03-26T09:48:05.613Z,8.28
2023-03-26T09:51:05.999Z,8.32
2023-03-26T09:53:47.375Z,8.34
2023-03-26T09:56:28.413Z,8.29
2023-03-26T09:59:03.936Z,8.26
2023-03-26T10:01:46.750Z,8.23
2023-03-26T10:04:46.015Z,8.21
2023-03-26T10:07:24.503Z,8.15
2023-03-26T10:10:02.042Z,8.13
2023-03-26T10:12:43.024Z,8.11
2023-03-26T10:15:23.427Z,8.09
2023-03-26T10:17:56.087Z,8.08
2023-03-26T10:20:43.492Z,8.09
2023-03-26T10:23:20.153Z,8.15
2023-03-26T10:26:18.032Z,8.17
2023-03-26T10:28:53.664Z,8.17
2023-03-26T10:31:52.702Z,8.13
2023-03-26T10:34:35.285Z,8.16
2023-03-26T10:37:04.422Z,8.13
2023-03-26T10:39:55.525Z,8.13
2023-03-26T10:42:40.814Z,8.09
2023-03-26T10:45:30.761Z,8.15
2023-03-26T10:48:15.497Z,8.11
2023-03-26T10:51:24.566Z,8.06
2023-03-26T10:54:02.844Z,8.08
2023-03-26T10:56:40.931Z,8.06
2023-03-26T10:59:13.684Z,7.97
2023-03-26T11:01:58.457Z,7.98
2023-03-26T11:04:31.368Z,7.89
2023-03-26T11:07:34.721Z,7.93
2023-03-26T11:10:50.816Z,7.88
2023-03-26T11:13:19.960Z,7.84
2023-03-26T11:16:09.715Z,7.89
2023-03-26T11:18:54.211Z,7.92
2023-03-26T11:21:47.004Z,7.93
2023-03-26T11:24:38.128Z,7.86
2023-03-26T11:27:15.465Z,7.86
2023-03-26T11:29:46.689Z,7.88
2023-03-26T11:32:27.026Z,7.94
2023-03-26T11:35:40.939Z,8.10
2023-03-26T11:38:23.487Z,8.11
2023-03-26T11:40:54.293Z,8.00
2023-03-26T11:43:33.180Z,8.03
2023-03-26T11:46:01.714Z,7.96
2023-03-26T11:48:40.533Z,7.88
2023-03-26T11:51:18.531Z,7.82
2023-03-26T11:53:47.090Z,7.81
2023-03-26T11:57:05.775Z,7.79
2023-03-26T11:59:59.227Z,7.76
2023-03-26T12:02:38.647Z,7.78
2023-03-26T12:05:17.977Z,7.80
2023-03-26T12:08:17.730Z,7.86
2023-03-26T12:10:44.628Z,7.97
2023-03-26T12:13:39.183Z,8.10
2023-03-26T12:16:10.754Z,8.15
2023-03-26T12:18:39.777Z,8.15
2023-03-26T12:21:13.950Z,8.20
2023-03-26T12:23:57.229Z,8.18
2023-03-26T12:26:41.942Z,8.24
2023-03-26T12:29:17.207Z,8.32
2023-03-26T12:32:06.036Z,8.38
2023-03-26T12:34:37.489Z,8.45
2023-03-26T12:37:06.088Z,8.44
2023-03-26T12:40:10.246Z,8.54
2023-03-26T12:44:50.881Z,8.58
2023-03-26T12:45:22.565Z,8.61
2023-03-26T12:48:00.461Z,8.70
2023-03-26T12:50:43.892Z,8.73
2023-03-26T12:53:43.331Z,8.76
2023-03-26T12:56:13.355Z,8.83
2023-03-26T12:58:58.139Z,8.82
2023-03-26T13:01:38.838Z,8.82
2023-03-26T13:04:08.387Z,8.93
2023-03-26T13:07:00.202Z,8.91
2023-03-26T13:09:38.962Z,9.01
2023-03-26T13:12:15.454Z,9.04
2023-03-26T13:15:08.992Z,9.03
2023-03-26T13:17:47.867Z,9.02
2023-03-26T13:20:47.957Z,9.08
2023-03-26T13:23:20.724Z,9.08
2023-03-26T13:26:10.678Z,9.03
2023-03-26T13:29:01.937Z,9.06
2023-03-26T13:31:38.340Z,8.96
2023-03-26T13:34:14.780Z,8.96
2023-03-26T13:36:44.122Z,8.97
2023-03-26T13:39:17.779Z,8.93
2023-03-26T13:41:47.286Z,8.93
2023-03-26T13:44:23.110Z,9.00
2023-03-26T13:46:55.200Z,9.06
2023-03-26T13:49:37.077Z,9.14
2023-03-26T13:52:24.674Z,9.23
2023-03-26T13:55:22.939Z,9.37
2023-03-26T13:58:05.074Z,9.40
2023-03-26T14:01:07.171Z,9.35
2023-03-26T14:03:58.108Z,9.29
2023-03-26T14:07:05.443Z,9.26
2023-03-26T14:09:44.382Z,9.31
2023-03-26T14:12:21.577Z,9.23
2023-03-26T14:14:54.487Z,9.19
2023-03-26T14:17:27.749Z,9.16
2023-03-26T14:20:08.611Z,9.09
2023-03-26T14:22:50.465Z,8.93
2023-03-26T14:25:53.620Z,8.80
2023-03-26T14:28:47.785Z,8.78
2023-03-26T14:31:53.393Z,8.74
2023-03-26T14:34:26.775Z,8.68
2023-03-26T14:37:06.440Z,8.68
2023-03-26T14:40:16.766Z,8.65
2023-03-26T14:43:01.661Z,8.63
2023-03-26T14:45:37.179Z,8.63
2023-03-26T14:48:28.504Z,8.63
2023-03-26T14:51:10.267Z,8.66
2023-03-26T14:53:43.359Z,8.56
2023-03-26T14:56:19.518Z,8.43
2023-03-26T14:58:57.119Z,8.37
2023-03-26T15:01:28.053Z,8.24
2023-03-26T15:04:15.942Z,8.18
2023-03-26T15:07:04.063Z,8.19
2023-03-26T15:09:43.154Z,8.26
2023-03-26T15:12:27.369Z,8.27
2023-03-26T15:15:26.444Z,8.28
2023-03-26T15:18:13.121Z,8.28
2023-03-26T15:20:48.367Z,8.32
2023-03-26T15:23:48.055Z,8.43
2023-03-26T15:27:03.696Z,8.57
2023-03-26T15:29:42.273Z,8.63
2023-03-26T15:32:17.838Z,8.58
2023-03-26T15:34:48.679Z,8.51
2023-03-26T15:37:43.355Z,8.57
2023-03-26T15:40:36.255Z,8.54
2023-03-26T15:43:16.144Z,8.45
2023-03-26T15:46:07.406Z,8.40
2023-03-26T15:48:52.337Z,8.33
2023-03-26T15:51:46.561Z,8.25
2023-03-26T15:54:31.881Z,8.13
2023-03-26T15:57:29.443Z,7.99
2023-03-26T16:00:17.861Z,7.89
2023-03-26T16:03:10.007Z,7.85
2023-03-26T16:06:14.039Z,7.77
2023-03-26T16:08:57.014Z,7.67
2023-03-26T16:11:52.734Z,7.63
2023-03-26T16:14:24.163Z,7.60
2023-03-26T16:16:59.252Z,7.59
2023-03-26T16:19:36.134Z,7.56
2023-03-26T16:22:07.823Z,7.56
2023-03-26T16:24:37.781Z,7.59
2023-03-26T16:27:26.328Z,7.58
2023-03-26T16:30:16.419Z,7.53
2023-03-26T16:32:56.178Z,7.51
2023-03-26T16:35:38.860Z,7.47
2023-03-26T16:38:10.598Z,7.41
2023-03-26T16:40:51.646Z,7.42
2023-03-26T16:43:56.109Z,7.37
2023-03-26T16:46:28.600Z,7.30
2023-03-26T16:49:20.405Z,7.23
2023-03-26T16:52:02.417Z,7.25
2023-03-26T16:54:54.228Z,7.24
2023-03-26T16:57:27.971Z,7.20
2023-03-26T17:00:07.573Z,7.25
2023-03-26T17:02:47.977Z,7.51
2023-03-26T17:05:34.260Z,7.27
2023-03-26T17:08:10.923Z,7.14
2023-03-26T17:10:56.851Z,7.10
2023-03-26T17:13:41.283Z,6.99
2023-03-26T17:16:23.418Z,6.95
2023-03-26T17:19:04.381Z,6.90
2023-03-26T17:21:49.934Z,6.83
2023-03-26T17:24:38.902Z,6.72
2023-03-26T17:27:24.894Z,6.69
2023-03-26T17:30:21.121Z,6.67
2023-03-26T17:33:13.387Z,6.62
2023-03-26T17:35:46.216Z,6.61
2023-03-26T17:38:15.980Z,6.61
2023-03-26T17:40:49.605Z,6.56
2023-03-26T17:43:36.503Z,6.59
2023-03-26T17:46:10.880Z,6.54
2023-03-26T17:48:40.768Z,6.53
2023-03-26T17:51:40.861Z,6.46
2023-03-26T17:54:39.367Z,6.39
2023-03-26T17:57:32.696Z,6.37
2023-03-26T18:00:00.760Z,6.30
2023-03-26T18:02:35.779Z,6.25
2023-03-26T18:05:06.126Z,6.28
2023-03-26T18:08:21.998Z,6.22
2023-03-26T18:11:18.053Z,6.10
2023-03-26T18:14:08.916Z,6.01
2023-03-26T18:17:01.731Z,5.95
2023-03-26T18:19:28.871Z,5.87
2023-03-26T18:22:03.279Z,5.85
2023-03-26T18:24:32.840Z,5.90
2023-03-26T18:27:13.258Z,5.89
2023-03-26T18:29:45.572Z,5.88
2023-03-26T18:32:12.097Z,5.94
2023-03-26T18:34:49.819Z,5.96
2023-03-26T18:37:22.565Z,5.97
2023-03-26T18:40:11.942Z,5.99
2023-03-26T18:42:40.336Z,6.03
2023-03-26T18:45:10.247Z,6.05
2023-03-26T18:47:38.416Z,6.04
2023-03-26T18:50:05.483Z,6.03
2023-03-26T18:52:32.174Z,6.05
2023-03-26T18:54:59.637Z,6.06
2023-03-26T18:57:29.258Z,6.01
2023-03-26T19:00:15.616Z,5.97
2023-03-26T19:02:42.703Z,5.91
2023-03-26T19:05:16.859Z,5.80
2023-03-26T19:07:46.401Z,5.69
2023-03-26T19:10:21.284Z,5.61
2023-03-26T19:12:58.970Z,5.54
2023-03-26T19:15:34.242Z,5.50
2023-03-26T19:18:23.894Z,5.47
2023-03-26T19:20:54.633Z,5.53
2023-03-26T19:23:26.533Z,5.58
2023-03-26T19:25:58.887Z,5.59
2023-03-26T19:28:29.622Z,5.56
2023-03-26T19:31:10.969Z,5.60
2023-03-26T19:33:41.519Z,5.59
2023-03-26T19:36:14.488Z,5.53
2023-03-26T19:38:48.880Z,5.46
2023-03-26T19:41:33.913Z,5.36
2023-03-26T19:44:26.693Z,5.26
2023-03-26T19:47:07.304Z,5.22
2023-03-26T19:49:48.615Z,5.22
2023-03-26T19:52:21.218Z,5.18
2023-03-26T19:55:02.061Z,5.12
2023-03-26T19:57:32.129Z,5.04
2023-03-26T19:59:59.365Z,4.97
2023-03-26T20:02:27.484Z,4.91
2023-03-26T20:04:54.150Z,4.87
2023-03-26T20:07:35.907Z,4.89
2023-03-26T20:10:05.476Z,4.92
2023-03-26T20:12:32.262Z,4.92
2023-03-26T20:14:58.814Z,4.97
2023-03-26T20:17:25.393Z,4.96
2023-03-26T20:19:54.169Z,4.98
2023-03-26T20:22:20.690Z,4.96
2023-03-26T20:24:47.644Z,4.96
2023-03-26T20:27:15.149Z,4.97
2023-03-26T20:29:42.291Z,4.98
2023-03-26T20:32:19.357Z,5.00
2023-03-26T20:34:49.092Z,4.97
2023-03-26T20:37:17.159Z,4.98
2023-03-26T20:39:43.672Z,4.96
2023-03-26T20:42:12.465Z,4.96
2023-03-26T20:44:40.700Z,4.91
2023-03-26T20:47:09.326Z,4.86
2023-03-26T20:49:35.871Z,4.81
2023-03-26T20:52:02.664Z,4.76
2023-03-26T20:54:32.014Z,4.71
2023-03-26T20:56:58.687Z,4.64
2023-03-26T20:59:27.773Z,4.59
2023-03-26T21:01:56.766Z,4.62
2023-03-26T21:04:26.205Z,4.57
2023-03-26T21:06:57.660Z,4.56
2023-03-26T21:09:35.484Z,4.50
2023-03-26T21:12:08.129Z,4.39
2023-03-26T21:14:41.774Z,4.39
2023-03-26T21:17:18.309Z,4.40
2023-03-26T21:19:45.956Z,4.36
2023-03-26T21:22:22.610Z,4.33
2023-03-26T21:25:03.437Z,4.28
2023-03-26T21:27:48.502Z,4.25
2023-03-26T21:30:16.406Z,4.17
2023-03-26T21:32:45.365Z,4.19
2023-03-26T21:35:14.780Z,4.20
2023-03-26T21:37:43.200Z,4.12
2023-03-26T21:40:14.862Z,4.06
2023-03-26T21:42:45.903Z,3.97
2023-03-26T21:45:13.505Z,4.01
2023-03-26T21:47:41.372Z,3.99
2023-03-26T21:50:09.277Z,3.96
2023-03-26T21:52:37.148Z,3.99
2023-03-26T21:55:05.853Z,4.01
2023-03-26T21:58:21.873Z,4.04
2023-03-26T22:01:00.010Z,4.06
2023-03-26T22:03:45.748Z,4.10
2023-03-26T22:06:20.789Z,4.13
2023-03-26T22:08:47.468Z,4.13
2023-03-26T22:11:13.896Z,4.17
2023-03-26T22:13:40.404Z,4.21
2023-03-26T22:16:08.457Z,4.23
2023-03-26T22:18:35.345Z,4.33
2023-03-26T22:21:02.103Z,4.36
2023-03-26T22:23:34.222Z,4.37
2023-03-26T22:26:00.839Z,4.40
2023-03-26T22:28:27.644Z,4.42
2023-03-26T22:30:54.391Z,4.44
2023-03-26T22:33:21.198Z,4.46
2023-03-26T22:35:47.731Z,4.46
2023-03-26T22:38:14.920Z,4.43
2023-03-26T22:40:41.418Z,4.43
2023-03-26T22:43:07.942Z,4.37
2023-03-26T22:45:34.658Z,4.33
2023-03-26T22:48:04.639Z,4.27
2023-03-26T22:50:32.394Z,4.16
2023-03-26T22:52:58.993Z,4.13
2023-03-26T22:55:28.013Z,4.02
2023-03-26T22:57:56.350Z,4.00
2023-03-26T23:00:23.079Z,3.97
2023-03-26T23:02:49.990Z,3.95
2023-03-26T23:05:17.756Z,3.92
2023-03-26T23:07:46.060Z,3.91
2023-03-26T23:10:13.014Z,3.84
2023-03-26T23:12:40.150Z,3.79
2023-03-26T23:15:07.248Z,3.74
2023-03-26T23:17:35.713Z,3.78
2023-03-26T23:20:06.152Z,3.83
2023-03-26T23:22:35.198Z,3.84
2023-03-26T23:25:01.962Z,3.91
2023-03-26T23:27:28.465Z,3.93
2023-03-26T23:29:55.389Z,3.95
2023-03-26T23:32:25.257Z,4.00
2023-03-26T23:34:52.714Z,3.98
2023-03-26T23:37:23.185Z,4.06
2023-03-26T23:39:51.269Z,4.09
2023-03-26T23:42:28.929Z,4.08
2023-03-26T23:44:56.909Z,4.08
2023-03-26T23:47:23.778Z,4.07
2023-03-26T23:49:50.425Z,4.02
2023-03-26T23:52:16.954Z,3.98
2023-03-26T23:54:44.529Z,3.98
2023-03-26T23:57:11.344Z,3.98
2023-03-26T23:59:38.254Z,3.94
